createdAt,value
2023-05-04T00:00:19.896Z,24.23
2023-05-04T00:02:46.793Z,25.57
2023-05-04T00:05:13.752Z,26.07
2023-05-04T00:07:40.789Z,24.40
2023-05-04T00:10:08.423Z,25.20
2023-05-04T00:12:35.594Z,26.93
2023-05-04T00:15:02.518Z,25.00
2023-05-04T00:17:29.401Z,25.80
2023-05-04T00:19:56.323Z,25.20
2023-05-04T00:22:23.505Z,27.50
2023-05-04T00:24:50.445Z,25.17
2023-05-04T00:27:17.211Z,26.27
2023-05-04T00:29:44.082Z,25.50
2023-05-04T00:32:10.916Z,24.83
2023-05-04T00:34:37.728Z,25.63
2023-05-04T00:37:05.154Z,24.87
2023-05-04T00:39:31.956Z,25.87
2023-05-04T00:41:58.727Z,24.53
2023-05-04T00:44:25.481Z,25.30
2023-05-04T00:46:52.981Z,24.60
2023-05-04T00:49:21.702Z,24.03
2023-05-04T00:51:49.529Z,25.13
2023-05-04T00:54:20.549Z,25.33
2023-05-04T00:56:47.873Z,25.17
2023-05-04T00:59:14.962Z,25.57
2023-05-04T01:01:42.219Z,25.03
2023-05-04T01:04:09.851Z,26.40
2023-05-04T01:06:55.602Z,24.67
2023-05-04T01:09:47.168Z,24.60
2023-05-04T01:12:42.651Z,24.73
2023-05-04T01:15:10.305Z,26.03
2023-05-04T01:17:37.203Z,26.40
2023-05-04T01:20:04.706Z,25.17
2023-05-04T01:22:31.873Z,24.47
2023-05-04T01:24:58.767Z,24.53
2023-05-04T01:27:40.531Z,25.63
2023-05-04T01:30:16.872Z,25.50
2023-05-04T01:32:45.816Z,24.97
2023-05-04T01:35:13.524Z,24.93
2023-05-04T01:37:40.912Z,25.40
2023-05-04T01:40:08.678Z,25.83
2023-05-04T01:42:35.863Z,25.83
2023-05-04T01:45:03.430Z,25.50
2023-05-04T01:47:30.327Z,25.13
2023-05-04T01:49:57.078Z,24.37
2023-05-04T01:52:23.864Z,25.97
2023-05-04T01:54:50.894Z,26.47
2023-05-04T01:57:17.844Z,24.27
2023-05-04T01:59:44.734Z,24.40
2023-05-04T02:02:11.782Z,25.03
2023-05-04T02:04:38.778Z,26.33
2023-05-04T02:07:05.590Z,26.43
2023-05-04T02:09:32.540Z,25.87
2023-05-04T02:11:59.802Z,25.30
2023-05-04T02:14:26.976Z,25.30
2023-05-04T02:16:53.798Z,24.53
2023-05-04T02:19:20.683Z,24.47
2023-05-04T02:21:48.223Z,22.97
2023-05-04T02:24:14.991Z,26.33
2023-05-04T02:26:42.015Z,24.93
2023-05-04T02:29:09.014Z,24.10
2023-05-04T02:31:36.019Z,26.03
2023-05-04T02:34:02.913Z,25.33
2023-05-04T02:36:30.081Z,25.63
2023-05-04T02:38:56.932Z,24.90
2023-05-04T02:41:23.745Z,24.97
2023-05-04T02:43:52.026Z,24.97
2023-05-04T02:46:20.081Z,23.60
2023-05-04T02:48:47.249Z,23.43
2023-05-04T02:51:14.017Z,25.10
2023-05-04T02:53:40.907Z,23.43
2023-05-04T02:56:07.717Z,24.90
2023-05-04T02:58:34.527Z,23.70
2023-05-04T03:01:01.306Z,24.83
2023-05-04T03:03:28.105Z,24.93
2023-05-04T03:05:54.941Z,25.13
2023-05-04T03:08:21.755Z,24.37
2023-05-04T03:10:48.506Z,26.70
2023-05-04T03:13:16.793Z,23.97
2023-05-04T03:15:44.009Z,24.73
2023-05-04T03:18:10.857Z,24.97
2023-05-04T03:20:38.191Z,24.63
2023-05-04T03:23:05.160Z,23.63
2023-05-04T03:25:32.130Z,25.30
2023-05-04T03:27:59.275Z,25.63
2023-05-04T03:30:26.273Z,25.07
2023-05-04T03:32:56.532Z,26.43
2023-05-04T03:35:24.875Z,24.77
2023-05-04T03:37:54.233Z,26.40
2023-05-04T03:40:23.183Z,26.03
2023-05-04T03:42:52.711Z,24.67
2023-05-04T03:45:22.208Z,24.47
2023-05-04T03:47:49.112Z,24.00
2023-05-04T03:50:16.119Z,23.80
2023-05-04T03:52:43.043Z,24.87
2023-05-04T03:55:10.986Z,25.67
2023-05-04T03:57:37.850Z,25.17
2023-05-04T04:00:06.365Z,25.83
2023-05-04T04:02:41.876Z,24.57
2023-05-04T04:05:15.799Z,25.53
2023-05-04T04:07:43.313Z,24.97
2023-05-04T04:10:10.788Z,24.10
2023-05-04T04:12:37.756Z,26.83
2023-05-04T04:15:05.152Z,24.87
2023-05-04T04:17:32.001Z,25.17
2023-05-04T04:19:58.949Z,24.60
2023-05-04T04:22:26.314Z,24.60
2023-05-04T04:24:53.147Z,25.53
2023-05-04T04:27:19.891Z,23.13
2023-05-04T04:29:46.812Z,25.50
2023-05-04T04:32:14.536Z,27.07
2023-05-04T04:34:41.511Z,26.13
2023-05-04T04:37:08.398Z,26.00
2023-05-04T04:39:35.370Z,26.50
2023-05-04T04:42:02.732Z,26.43
2023-05-04T04:44:29.798Z,24.67
2023-05-04T04:46:56.707Z,24.77
2023-05-04T04:49:23.684Z,27.20
2023-05-04T04:51:50.471Z,25.63
2023-05-04T04:54:17.224Z,25.27
2023-05-04T04:56:46.087Z,24.83
2023-05-04T04:59:14.069Z,28.53
2023-05-04T05:01:42.241Z,25.73
2023-05-04T05:04:09.074Z,26.73
2023-05-04T05:06:36.645Z,27.80
2023-05-04T05:09:03.543Z,26.83
2023-05-04T05:11:30.335Z,27.83
2023-05-04T05:13:59.817Z,27.70
2023-05-04T05:16:27.041Z,26.73
2023-05-04T05:18:53.903Z,26.60
2023-05-04T05:21:20.798Z,26.20
2023-05-04T05:23:47.606Z,28.00
2023-05-04T05:26:14.444Z,27.03
2023-05-04T05:28:41.538Z,27.77
2023-05-04T05:31:08.411Z,28.57
2023-05-04T05:33:35.269Z,28.90
2023-05-04T05:36:03.368Z,32.30
2023-05-04T05:38:30.235Z,31.50
2023-05-04T05:40:57.020Z,31.23
2023-05-04T05:43:23.878Z,30.03
2023-05-04T05:45:50.743Z,28.57
2023-05-04T05:48:17.631Z,31.33
2023-05-04T05:50:44.371Z,30.03
2023-05-04T05:53:11.530Z,30.53
2023-05-04T05:55:38.271Z,31.17
2023-05-04T05:58:05.781Z,30.27
2023-05-04T06:00:32.608Z,29.43
2023-05-04T06:02:59.604Z,29.50
2023-05-04T06:05:26.766Z,29.40
2023-05-04T06:07:53.625Z,32.17
2023-05-04T06:10:20.388Z,32.90
2023-05-04T06:12:47.576Z,30.87
2023-05-04T06:15:14.528Z,30.57
2023-05-04T06:17:41.776Z,30.93
2023-05-04T06:20:09.469Z,31.17
2023-05-04T06:22:36.284Z,28.87
2023-05-04T06:25:06.962Z,28.37
2023-05-04T06:27:34.695Z,29.70
2023-05-04T06:30:01.730Z,28.10
2023-05-04T06:32:28.621Z,27.13
2023-05-04T06:34:55.848Z,28.40
2023-05-04T06:37:23.311Z,29.93
2023-05-04T06:39:50.165Z,29.40
2023-05-04T06:42:17.321Z,28.90
2023-05-04T06:44:47.981Z,28.80
2023-05-04T06:47:15.702Z,30.03
2023-05-04T06:49:42.657Z,30.47
2023-05-04T06:52:09.915Z,27.00
2023-05-04T06:54:36.704Z,29.83
2023-05-04T06:57:03.706Z,29.97
2023-05-04T06:59:30.702Z,28.00
2023-05-04T07:01:57.920Z,28.57
2023-05-04T07:04:24.790Z,27.70
2023-05-04T07:06:52.175Z,28.60
2023-05-04T07:09:19.832Z,28.30
2023-05-04T07:11:48.534Z,27.77
2023-05-04T07:14:16.094Z,29.90
2023-05-04T07:16:42.985Z,29.87
2023-05-04T07:19:10.429Z,25.80
2023-05-04T07:21:37.820Z,27.07
2023-05-04T07:24:05.269Z,29.03
2023-05-04T07:26:32.180Z,26.63
2023-05-04T07:28:59.162Z,25.87
2023-05-04T07:31:26.640Z,28.53
2023-05-04T07:33:54.985Z,26.10
2023-05-04T07:36:23.971Z,27.77
2023-05-04T07:38:51.305Z,26.37
2023-05-04T07:41:18.123Z,27.63
2023-05-04T07:43:44.877Z,26.20
2023-05-04T07:46:12.813Z,29.40
2023-05-04T07:48:39.784Z,28.50
2023-05-04T07:51:06.604Z,24.83
2023-05-04T07:53:33.507Z,25.93
2023-05-04T07:56:08.652Z,24.50
2023-05-04T07:58:35.585Z,24.70
2023-05-04T08:01:02.769Z,26.43
2023-05-04T08:03:30.673Z,26.67
2023-05-04T08:05:57.675Z,25.10
2023-05-04T08:08:25.212Z,28.00
2023-05-04T08:10:52.622Z,26.07
2023-05-04T08:13:19.471Z,26.13
2023-05-04T08:15:46.288Z,24.87
2023-05-04T08:18:13.126Z,23.57
2023-05-04T08:20:39.948Z,25.23
2023-05-04T08:23:07.311Z,24.90
2023-05-04T08:25:34.455Z,27.70
2023-05-04T08:28:01.238Z,26.33
2023-05-04T08:30:28.090Z,23.97
2023-05-04T08:32:56.479Z,27.43
2023-05-04T08:35:27.765Z,21.53
2023-05-04T08:37:54.768Z,23.93
2023-05-04T08:40:24.046Z,25.20
2023-05-04T08:42:52.327Z,24.60
2023-05-04T08:45:19.339Z,25.53
2023-05-04T08:47:46.387Z,23.17
2023-05-04T08:50:13.706Z,23.93
2023-05-04T08:52:48.855Z,23.88
2023-05-04T08:55:17.269Z,23.43
2023-05-04T08:57:44.490Z,23.40
2023-05-04T09:00:17.239Z,22.13
2023-05-04T09:02:45.416Z,21.80
2023-05-04T09:05:12.923Z,21.90
2023-05-04T09:07:39.729Z,21.00
2023-05-04T09:10:07.428Z,23.23
2023-05-04T09:12:34.472Z,21.43
2023-05-04T09:15:05.897Z,20.00
2023-05-04T09:17:33.179Z,20.53
2023-05-04T09:20:02.037Z,20.80
2023-05-04T09:22:30.176Z,19.80
2023-05-04T09:25:11.188Z,21.53
2023-05-04T09:27:39.313Z,19.33
2023-05-04T09:30:07.028Z,20.60
2023-05-04T09:32:45.089Z,20.67
2023-05-04T09:35:16.234Z,21.17
2023-05-04T09:37:52.361Z,20.00
2023-05-04T09:40:29.552Z,21.20
2023-05-04T09:43:01.043Z,20.40
2023-05-04T09:45:40.036Z,21.00
2023-05-04T09:48:21.005Z,18.60
2023-05-04T09:50:58.696Z,19.20
2023-05-04T09:53:27.168Z,18.03
2023-05-04T09:56:14.779Z,18.07
2023-05-04T09:58:43.419Z,16.60
2023-05-04T10:01:11.638Z,16.60
2023-05-04T10:03:38.835Z,17.17
2023-05-04T10:06:06.219Z,17.03
2023-05-04T10:08:33.417Z,16.10
2023-05-04T10:11:00.293Z,16.67
2023-05-04T10:13:27.979Z,17.23
2023-05-04T10:16:29.272Z,17.73
2023-05-04T10:19:15.474Z,16.63
2023-05-04T10:21:51.332Z,16.30
2023-05-04T10:24:45.861Z,16.20
2023-05-04T10:27:18.686Z,17.27
2023-05-04T10:29:50.748Z,16.87
2023-05-04T10:32:22.136Z,16.13
2023-05-04T10:34:49.272Z,16.87
2023-05-04T10:37:18.205Z,16.40
2023-05-04T10:39:55.176Z,16.07
2023-05-04T10:42:22.362Z,16.47
2023-05-04T10:44:55.290Z,16.00
2023-05-04T10:47:30.639Z,17.60
2023-05-04T10:50:12.140Z,16.20
2023-05-04T10:52:49.601Z,16.40
2023-05-04T10:55:18.198Z,16.70
2023-05-04T10:57:55.899Z,16.40
2023-05-04T11:00:24.388Z,16.40
2023-05-04T11:02:51.335Z,15.93
2023-05-04T11:10:05.348Z,16.33
2023-05-04T11:12:33.059Z,16.10
2023-05-04T11:15:12.352Z,16.10
2023-05-04T11:17:49.938Z,15.00
2023-05-04T11:20:25.112Z,15.95
2023-05-04T11:22:53.665Z,15.88
2023-05-04T11:25:30.819Z,16.40
2023-05-04T11:27:59.406Z,16.10
2023-05-04T11:30:35.767Z,16.55
2023-05-04T11:33:11.722Z,16.27
2023-05-04T11:35:42.772Z,16.80
2023-05-04T11:38:10.253Z,16.45
2023-05-04T11:40:49.898Z,17.27
2023-05-04T11:43:20.088Z,16.10
2023-05-04T11:45:49.188Z,16.48
2023-05-04T11:48:18.756Z,16.38
2023-05-04T11:50:50.725Z,16.50
2023-05-04T11:53:22.722Z,17.17
2023-05-04T11:55:53.991Z,18.65
2023-05-04T11:58:28.659Z,16.95
2023-05-04T12:00:58.464Z,17.73
2023-05-04T12:03:39.758Z,17.75
2023-05-04T12:06:18.018Z,18.02
2023-05-04T12:08:46.708Z,19.33
2023-05-04T12:11:17.629Z,18.25
2023-05-04T12:13:55.433Z,18.45
2023-05-04T12:16:23.432Z,18.58
2023-05-04T12:19:13.145Z,17.75
2023-05-04T12:21:56.784Z,18.00
2023-05-04T12:24:25.170Z,17.92
2023-05-04T12:26:52.175Z,17.98
2023-05-04T12:29:22.812Z,18.38
2023-05-04T12:31:51.846Z,17.48
2023-05-04T12:34:20.474Z,17.98
2023-05-04T12:36:53.869Z,17.02
2023-05-04T12:39:25.412Z,18.08
2023-05-04T12:41:52.388Z,17.55
2023-05-04T12:44:19.645Z,17.73
2023-05-04T12:46:46.512Z,17.83
2023-05-04T12:49:15.137Z,18.30
2023-05-04T12:51:42.457Z,19.00
2023-05-04T12:54:12.648Z,18.98
2023-05-04T12:56:43.784Z,19.30
2023-05-04T12:59:11.002Z,18.58
2023-05-04T13:01:39.398Z,18.48
2023-05-04T13:04:09.041Z,19.58
2023-05-04T13:09:17.283Z,19.63
2023-05-04T13:11:47.646Z,19.15
2023-05-04T13:14:29.613Z,19.92
2023-05-04T13:17:00.428Z,19.38
2023-05-04T13:19:38.774Z,19.70
2023-05-04T13:22:05.850Z,20.70
2023-05-04T13:24:34.234Z,19.55
2023-05-04T13:27:03.005Z,20.90
2023-05-04T13:29:44.419Z,20.20
2023-05-04T13:32:13.580Z,20.30
2023-05-04T13:34:44.506Z,20.92
2023-05-04T13:37:17.174Z,20.05
2023-05-04T13:39:53.263Z,21.15
2023-05-04T13:42:37.026Z,21.20
2023-05-04T13:48:04.338Z,21.40
2023-05-04T13:50:32.453Z,21.23
2023-05-04T13:53:17.767Z,19.87
2023-05-04T13:55:57.364Z,20.73
2023-05-04T13:58:24.520Z,20.07
2023-05-04T14:07:10.056Z,21.23
2023-05-04T14:09:43.715Z,20.37
2023-05-04T14:12:26.048Z,20.47
2023-05-04T14:21:17.904Z,20.70
2023-05-04T14:23:48.263Z,20.07
2023-05-04T14:26:56.112Z,20.37
2023-05-04T14:29:50.876Z,20.20
2023-05-04T14:35:56.891Z,21.13
2023-05-04T14:41:33.714Z,20.83
2023-05-04T14:44:01.449Z,20.43
2023-05-04T14:46:30.060Z,20.17
2023-05-04T14:48:56.977Z,20.77
2023-05-04T14:51:26.391Z,21.07
2023-05-04T14:53:54.189Z,21.83
2023-05-04T14:56:21.168Z,21.60
2023-05-04T14:58:48.123Z,21.73
2023-05-04T15:01:14.916Z,19.83
2023-05-04T15:03:42.166Z,20.90
2023-05-04T15:06:10.165Z,22.60
2023-05-04T15:08:37.256Z,20.93
2023-05-04T15:11:04.015Z,21.17
2023-05-04T15:13:31.753Z,20.23
2023-05-04T15:15:58.812Z,21.80
2023-05-04T15:18:26.198Z,23.03
2023-05-04T15:20:53.008Z,20.33
2023-05-04T15:23:19.815Z,21.60
2023-05-04T15:25:46.734Z,22.63
2023-05-04T15:28:13.685Z,21.70
2023-05-04T15:30:41.838Z,22.67
2023-05-04T15:33:08.925Z,21.10
2023-05-04T15:35:36.607Z,21.53
2023-05-04T15:38:03.842Z,23.63
2023-05-04T15:40:31.431Z,23.40
2023-05-04T15:42:58.358Z,22.50
2023-05-04T15:45:25.727Z,22.93
2023-05-04T15:47:56.485Z,22.73
2023-05-04T15:50:24.046Z,23.17
2023-05-04T15:52:51.930Z,23.57
2023-05-04T15:55:26.034Z,24.17
2023-05-04T15:57:54.042Z,25.17
2023-05-04T16:00:21.521Z,23.30
2023-05-04T16:02:48.593Z,23.20
2023-05-04T16:05:15.648Z,23.90
2023-05-04T16:07:42.453Z,22.47
2023-05-04T16:10:10.241Z,23.20
2023-05-04T16:12:40.964Z,24.23
2023-05-04T16:15:08.145Z,21.83
2023-05-04T16:17:35.436Z,22.47
2023-05-04T16:20:04.110Z,21.90
2023-05-04T16:22:31.527Z,23.07
2023-05-04T16:24:58.553Z,23.23
2023-05-04T16:27:28.708Z,22.77
2023-05-04T16:29:55.980Z,22.47
2023-05-04T16:32:23.097Z,22.63
2023-05-04T16:34:49.950Z,21.77
2023-05-04T16:37:18.434Z,22.53
2023-05-04T16:39:45.336Z,21.47
2023-05-04T16:42:12.627Z,23.10
2023-05-04T16:44:39.483Z,22.37
2023-05-04T16:47:07.161Z,23.20
2023-05-04T16:49:34.329Z,21.27
2023-05-04T16:52:02.279Z,21.93
2023-05-04T16:54:29.168Z,22.13
2023-05-04T16:56:56.044Z,22.80
2023-05-04T16:59:23.264Z,23.00
2023-05-04T17:01:50.543Z,22.13
2023-05-04T17:04:17.377Z,22.30
2023-05-04T17:06:44.190Z,21.43
2023-05-04T17:09:11.236Z,21.50
2023-05-04T17:11:38.066Z,22.27
2023-05-04T17:14:05.088Z,22.90
2023-05-04T17:16:32.035Z,23.67
2023-05-04T17:18:59.316Z,22.30
2023-05-04T17:21:26.152Z,22.63
2023-05-04T17:23:52.927Z,23.93
2023-05-04T17:26:19.782Z,23.23
2023-05-04T17:28:46.730Z,23.33
2023-05-04T17:31:13.776Z,23.37
2023-05-04T17:33:40.861Z,22.93
2023-05-04T17:36:08.097Z,23.57
2023-05-04T17:38:35.003Z,23.43
2023-05-04T17:41:02.103Z,22.73
2023-05-04T17:43:29.003Z,23.37
2023-05-04T17:45:56.146Z,23.03
2023-05-04T17:48:24.037Z,23.30
2023-05-04T17:50:51.415Z,23.87
2023-05-04T17:53:18.432Z,21.47
2023-05-04T17:55:45.358Z,22.63
2023-05-04T17:58:12.158Z,22.30
2023-05-04T18:00:39.120Z,22.77
2023-05-04T18:03:06.112Z,22.50
2023-05-04T18:05:32.930Z,21.67
2023-05-04T18:07:59.824Z,21.70
2023-05-04T18:10:26.945Z,22.03
2023-05-04T18:12:53.761Z,23.47
2023-05-04T18:15:20.614Z,24.47
2023-05-04T18:17:48.618Z,22.47
2023-05-04T18:20:15.810Z,23.03
2023-05-04T18:22:42.590Z,23.87
2023-05-04T18:25:09.719Z,22.67
2023-05-04T18:27:36.607Z,23.57
2023-05-04T18:30:05.155Z,22.30
2023-05-04T18:32:32.217Z,22.33
2023-05-04T18:34:59.071Z,23.50
2023-05-04T18:37:25.940Z,22.97
2023-05-04T18:39:52.906Z,22.57
2023-05-04T18:42:19.758Z,23.30
2023-05-04T18:44:46.633Z,22.37
2023-05-04T18:47:13.430Z,22.20
2023-05-04T18:49:40.208Z,21.20
2023-05-04T18:52:07.124Z,21.63
2023-05-04T18:54:33.868Z,21.07
2023-05-04T18:57:01.059Z,22.20
2023-05-04T18:59:27.920Z,20.20
2023-05-04T19:01:56.328Z,20.40
2023-05-04T19:04:23.156Z,20.37
2023-05-04T19:06:53.419Z,21.03
2023-05-04T19:09:20.391Z,21.33
2023-05-04T19:11:47.172Z,20.00
2023-05-04T19:14:14.130Z,20.77
2023-05-04T19:16:41.121Z,20.87
2023-05-04T19:19:07.964Z,21.67
2023-05-04T19:21:35.128Z,19.77
2023-05-04T19:24:02.309Z,19.37
2023-05-04T19:26:29.177Z,19.90
2023-05-04T19:28:56.061Z,20.43
2023-05-04T19:31:22.939Z,19.70
2023-05-04T19:33:49.917Z,19.97
2023-05-04T19:36:17.204Z,20.77
2023-05-04T19:38:44.216Z,20.83
2023-05-04T19:41:11.326Z,20.53
2023-05-04T19:43:38.781Z,21.53
2023-05-04T19:46:05.801Z,21.43
2023-05-04T19:48:32.876Z,21.40
2023-05-04T19:50:59.962Z,20.30
2023-05-04T19:53:26.986Z,19.73
2023-05-04T19:55:54.168Z,20.20
2023-05-04T19:58:22.072Z,21.40
2023-05-04T20:00:48.913Z,20.57
2023-05-04T20:03:16.962Z,20.50
2023-05-04T20:05:43.930Z,19.50
2023-05-04T20:08:11.037Z,20.23
2023-05-04T20:10:38.006Z,19.30
2023-05-04T20:13:05.976Z,20.53
2023-05-04T20:15:32.787Z,19.33
2023-05-04T20:17:59.665Z,20.67
2023-05-04T20:20:26.781Z,19.93
2023-05-04T20:22:55.970Z,19.20
2023-05-04T20:25:22.986Z,20.65
2023-05-04T20:27:52.096Z,19.87
2023-05-04T20:30:18.991Z,20.55
2023-05-04T20:32:48.027Z,19.70
2023-05-04T20:35:15.128Z,20.40
2023-05-04T20:37:41.932Z,20.43
2023-05-04T20:40:09.460Z,20.23
2023-05-04T20:42:36.452Z,20.17
2023-05-04T20:45:03.417Z,20.03
2023-05-04T20:47:30.188Z,20.00
2023-05-04T20:49:57.263Z,21.77
2023-05-04T20:52:24.941Z,19.33
2023-05-04T20:54:51.727Z,20.77
2023-05-04T20:57:18.521Z,20.60
2023-05-04T20:59:45.424Z,19.93
2023-05-04T21:02:12.279Z,20.57
2023-05-04T21:04:39.077Z,20.27
2023-05-04T21:07:06.089Z,19.33
2023-05-04T21:09:33.111Z,20.40
2023-05-04T21:11:59.914Z,19.83
2023-05-04T21:14:26.688Z,21.63
2023-05-04T21:16:53.549Z,20.43
2023-05-04T21:19:20.608Z,20.10
2023-05-04T21:21:47.374Z,20.97
2023-05-04T21:24:14.463Z,20.00
2023-05-04T21:26:41.826Z,19.67
2023-05-04T21:29:15.175Z,19.43
2023-05-04T21:31:42.255Z,20.00
2023-05-04T21:34:09.158Z,20.20
2023-05-04T21:36:35.966Z,20.03
2023-05-04T21:39:03.392Z,19.53
2023-05-04T21:41:30.282Z,20.47
2023-05-04T21:43:57.404Z,20.20
2023-05-04T21:46:24.211Z,20.90
2023-05-04T21:48:51.801Z,20.67
2023-05-04T21:51:20.534Z,21.17
2023-05-04T21:53:47.676Z,20.53
2023-05-04T21:56:14.509Z,20.50
2023-05-04T21:58:42.111Z,20.90
2023-05-04T22:01:09.734Z,21.27
2023-05-04T22:03:36.962Z,21.40
2023-05-04T22:06:04.091Z,20.43
2023-05-04T22:08:31.181Z,20.73
2023-05-04T22:10:58.714Z,20.33
2023-05-04T22:13:26.076Z,19.90
2023-05-04T22:15:53.667Z,21.63
2023-05-04T22:18:20.856Z,20.33
2023-05-04T22:20:48.178Z,21.27
2023-05-04T22:23:15.364Z,22.30
2023-05-04T22:25:42.114Z,21.23
2023-05-04T22:28:08.969Z,19.93
2023-05-04T22:30:35.876Z,21.23
2023-05-04T22:33:02.818Z,20.90
2023-05-04T22:35:31.653Z,21.50
2023-05-04T22:37:58.566Z,21.87
2023-05-04T22:40:25.620Z,21.73
2023-05-04T22:42:52.452Z,22.60
2023-05-04T22:45:19.320Z,21.93
2023-05-04T22:47:46.844Z,22.10
2023-05-04T22:50:14.441Z,22.53
2023-05-04T22:52:41.671Z,21.53
2023-05-04T22:55:09.259Z,22.57
2023-05-04T22:57:36.319Z,21.77
2023-05-04T23:00:05.563Z,22.67
2023-05-04T23:02:33.039Z,22.40
2023-05-04T23:05:00.561Z,22.53
2023-05-04T23:07:27.555Z,22.70
2023-05-04T23:09:54.320Z,23.57
2023-05-04T23:12:21.121Z,22.83
2023-05-04T23:14:52.362Z,22.67
2023-05-04T23:17:19.484Z,23.20
2023-05-04T23:19:46.240Z,22.90
2023-05-04T23:22:13.809Z,23.97
2023-05-04T23:24:40.666Z,22.70
2023-05-04T23:27:07.629Z,23.00
2023-05-04T23:29:34.385Z,25.50
2023-05-04T23:32:01.306Z,24.30
2023-05-04T23:34:28.352Z,24.63
2023-05-04T23:36:55.322Z,24.10
2023-05-04T23:39:22.158Z,24.73
2023-05-04T23:41:48.953Z,26.27
2023-05-04T23:44:16.625Z,24.00
2023-05-04T23:46:43.593Z,25.50
2023-05-04T23:49:10.364Z,25.23
2023-05-04T23:51:37.416Z,25.17
2023-05-04T23:54:04.157Z,23.43
2023-05-04T23:56:32.020Z,25.20
2023-05-04T23:58:58.854Z,25.27
